메인 페이지
METAR-TAF:

METAR-TAF

공항 :

지다, 사우디아라비아

킹 압둘아지즈 국제공항

위도: 21-42N, 경도: 039-11E, 고도: 15m

현재 날씨관측

예보는 31분 전, 09:00시(UTC)에 발표되었습니다.
4kt
온도 27°C
습도 48%
기압 1014 hPa
시정 10km 이상
고도 3500ft 상공 구름 조금

METAR: OEJN 180900Z 36004KT 9999 FEW035 27/15 Q1014 NOSIG

시각: 12:31 (09:31 UTC)

예보

예보는 4 시간 31분 전, 05:00시(UTC)에 발표되었습니다.
예보 대상 시간: 18일 06시부터 19일 12시까지 (UTC)
여러 방향의 바람 3kt
시정: 7000m
전환 중
18일 08시부터 18일 10시까지 (UTC)
북서6kt, 순간 최대 풍속 16kt

TAF: OEJN 180500Z 1806/1912 VRB03KT 7000 NSC BECMG 1808/1810 32006G16KT

4,000개 이상의 공항 관측 자료 및 예보 (METAR 및 TAF 보고).

지도상에서 검색 가능한 기상관측소가 노란 점과 빨간 점으로 표시되어 있습니다.

기상관측소 명을 보려면 표시 위로 마우스를 이동하세요.

날씨 관측과 예보를 보려면 클릭하세요.

지도 변경 : 확대하려면 엑스 표시가 있는 녹색 버튼, 축소하려면 빼기 표시가 있는 녹색 버튼, 다음 페이지의 지도를 보려면 녹색 화살표를 클릭하세요.


METAR-TAF: